• Join FlightAware (Why Join?)
  • Login
  • US Flag 
04:51PM EDT


 

Airport Tracker/Info


-or-


 

Live Flight TrackerFlight Track Log ✈ JBU41 ✈ 09-May-2013 ✈ KJFK - KMCO

Flight Track Log - Related Links

Times and Time Zones

All times are in EDT time to prevent confusion due to time zone crossing. See the JBU41 flight status page for this flight to view local times or setup timezone preferences in your user account.

Time Position Orientation Groundspeed Altitude Reporting Facility
EDT Latitude Longitude Course Direction KTS MPH feet Rate Location/Type
11:37AM 40.6500 -73.7667 146° Southeast 198 228 600  Level New York TRACON
11:38AM 40.6333 -73.7167 114° Southeast 245 282 3,100 2,340 Climbing New York TRACON
11:39AM 40.5833 -73.7667 217° Southwest 264 304 5,100 2,460 Climbing New York TRACON
11:40AM 40.3274 -73.4941 143° Southeast  Level FlightAware Approximate
11:40AM 40.5025 -73.8553 220° Southwest 272 313 9,300  Level New York Center
11:41AM 40.2403 -73.3903 143° Southeast  Level FlightAware Approximate
11:41AM 40.4325 -73.8275 163° South 276 318 11,400  Level New York Center
11:42AM 40.1368 -73.2974 146° Southeast  Level FlightAware Approximate
11:42AM 40.3272 -73.7931 166° South 336 387 13,900  Level New York Center
11:43AM 40.2425 -73.7594 163° South 360 414 16,200 2,340 Climbing New York Center
11:44AM 40.1331 -73.7192 164° South 375 432 18,600 1,860 Climbing New York Center
11:47AM 39.8861 -73.7094 178° South 389 448 22,600 1,620 Climbing Washington Center
11:48AM 39.7761 -73.7233 186° South 407 468 24,200 1,380 Climbing Washington Center
11:49AM 39.6639 -73.7422 187° South 407 468 25,400 1,320 Climbing Washington Center
11:50AM 39.5756 -73.8308 218° Southwest 388 447 26,900 1,320 Climbing Washington Center
11:51AM 39.4914 -73.9297 222° Southwest 400 460 28,100 1,200 Climbing Washington Center
11:52AM 39.4053 -74.0283 222° Southwest 410 472 29,300 1,080 Climbing Washington Center
11:53AM 39.3147 -74.1242 219° Southwest 421 484 30,300 1,080 Climbing Washington Center
11:54AM 39.2242 -74.2253 221° Southwest 432 497 31,500 1,020 Climbing Washington Center
11:55AM 39.1358 -74.3206 220° Southwest 427 491 32,400 1,080 Climbing Washington Center
11:56AM 39.0450 -74.4183 220° Southwest 427 491 33,700 780 Climbing Washington Center
11:57AM 38.9542 -74.5186 221° Southwest 427 491 34,000 120 Climbing Washington Center
11:58AM 38.8614 -74.6158 219° Southwest 427 491 34,000  Level Washington Center
11:59AM 38.7725 -74.7131 220° Southwest 427 491 34,000  Level Washington Center
12:00PM 38.6833 -74.8097 220° Southwest 427 491 34,000  Level Washington Center
12:01PM 38.5903 -74.9064 219° Southwest 427 491 34,000  Level Washington Center
12:02PM 38.5011 -74.9947 218° Southwest 422 486 34,000 120 Level Washington Center
12:03PM 38.4033 -75.0831 215° Southwest 427 491 34,300 480 Climbing Washington Center
12:04PM 38.2994 -75.1683 213° Southwest 433 498 35,000 660 Climbing Washington Center
12:05PM 38.1956 -75.2456 210° Southwest 444 511 35,600 480 Climbing Washington Center
12:06PM 38.0872 -75.3228 209° Southwest 449 517 36,000 180 Climbing Washington Center
12:07PM 37.9789 -75.3994 209° Southwest 444 511 36,000  Level Washington Center
12:08PM 37.8728 -75.4761 210° Southwest 444 511 36,000  Level Washington Center
12:09PM 37.7644 -75.5525 209° Southwest 444 511 36,000  Level Washington Center
12:10PM 37.6558 -75.6311 210° Southwest 444 511 36,000  Level Washington Center
12:11PM 37.5475 -75.7069 209° Southwest 439 505 36,000  Level Washington Center
12:12PM 37.4408 -75.7828 209° Southwest 439 505 36,000  Level Washington Center
12:13PM 37.3344 -75.8583 209° Southwest 439 505 36,000  Level Washington Center
12:14PM 37.2278 -75.9336 209° Southwest 439 505 36,000  Level Washington Center
12:15PM 37.1192 -76.0086 209° Southwest 439 505 36,000  Level Washington Center
12:16PM 37.0144 -76.0861 211° Southwest 439 505 36,000  Level Washington Center
12:17PM 36.8994 -76.1581 207° Southwest 453 521 36,000  Level Washington Center
12:18PM 36.7928 -76.2325 209° Southwest 453 521 36,000  Level Washington Center
12:19PM 36.6756 -76.3197 211° Southwest 453 521 36,000  Level Washington Center
12:20PM 36.5686 -76.3911 208° Southwest 448 516 36,000  Level Washington Center
12:21PM 36.4594 -76.4647 208° Southwest 442 509 36,000  Level Washington Center
12:22PM 36.3506 -76.5383 209° Southwest 442 509 36,000  Level Washington Center
12:23PM 36.2414 -76.6144 209° Southwest 442 509 36,000  Level Washington Center
12:24PM 36.1303 -76.6850 207° Southwest 442 509 36,000  Level Washington Center
12:25PM 36.0253 -76.7606 210° Southwest 442 509 36,000  Level Washington Center
12:26PM 35.9158 -76.8333 208° Southwest 442 509 36,000  Level Washington Center
12:27PM 35.8086 -76.9086 210° Southwest 442 509 36,000  Level Washington Center
12:28PM 35.6994 -76.9783 207° Southwest 442 509 36,000  Level Washington Center
12:29PM 35.6047 -77.0456 210° Southwest 442 509 36,000  Level Washington Center
12:30PM 35.4975 -77.1203 210° Southwest 442 509 36,000  Level Washington Center
12:31PM 35.3858 -77.1894 207° Southwest 447 514 36,000  Level Washington Center
12:32PM 35.2786 -77.2636 209° Southwest 447 514 36,000  Level Washington Center
12:33PM 35.1669 -77.3375 208° Southwest 442 509 36,000  Level Washington Center
12:34PM 35.0594 -77.4089 209° Southwest 442 509 36,000  Level Washington Center
12:35PM 34.9475 -77.4850 209° Southwest 442 509 36,100  Climbing Washington Center
12:36PM 34.8358 -77.5556 207° Southwest 447 514 36,000 -60 Descending Washington Center
12:37PM 34.7178 -77.6386 210° Southwest 447 514 36,000  Level Washington Center
12:38PM 34.6081 -77.7092 208° Southwest 447 514 36,000  Level Washington Center
12:39PM 34.4961 -77.7844 209° Southwest 452 520 36,000  Level Washington Center
12:40PM 34.3842 -77.8544 207° Southwest 452 520 36,000  Level Washington Center
12:41PM 34.2664 -77.8964 196° South 489 563 36,000  Level Washington Center
12:43PM 33.9542 -77.9933 194° South 470 541 36,000  Level Jacksonville Center
12:44PM 33.8303 -78.0250 192° South 471 542 36,000  Level Jacksonville Center
12:45PM 33.7064 -78.0619 194° South 471 542 36,000  Level Jacksonville Center
12:46PM 33.5908 -78.0956 194° South 471 542 36,000  Level Jacksonville Center
12:47PM 33.4647 -78.1300 193° South 466 536 36,000  Level Jacksonville Center
12:48PM 33.3389 -78.1664 194° South 466 536 36,000  Level Jacksonville Center
12:49PM 33.2108 -78.2006 193° South 466 536 36,000  Level Jacksonville Center
12:50PM 33.0869 -78.2342 193° South 466 536 36,000  Level Jacksonville Center
12:51PM 32.9589 -78.2706 193° South 466 536 36,000  Level Jacksonville Center
12:52PM 32.8350 -78.3092 195° South 466 536 36,000  Level Jacksonville Center
12:53PM 32.7089 -78.3403 192° South 466 536 36,000  Level Jacksonville Center
12:54PM 32.5828 -78.3786 194° South 466 536 36,000  Level Jacksonville Center
12:55PM 32.4589 -78.4119 193° South 466 536 36,000  Level Jacksonville Center
12:56PM 32.3347 -78.4450 193° South 466 536 36,000  Level Jacksonville Center
12:57PM 32.2128 -78.4828 195° South 466 536 36,000  Level Jacksonville Center
12:58PM 32.0847 -78.5183 193° South 466 536 36,000  Level Jacksonville Center
12:59PM 31.9608 -78.5536 194° South 466 536 36,000  Level Jacksonville Center
01:00PM 31.8389 -78.5911 195° South 466 536 36,000  Level Jacksonville Center
01:01PM 31.7128 -78.6289 194° South 466 536 36,000  Level Jacksonville Center
01:02PM 31.5886 -78.6614 193° South 466 536 36,000  Level Jacksonville Center
01:03PM 31.4503 -78.7089 196° South 461 531 36,000  Level Jacksonville Center
01:04PM 31.3303 -78.7436 194° South 460 529 36,000  Level Jacksonville Center
01:05PM 31.2100 -78.7633 188° South 468 539 36,000  Level Jacksonville Center
01:06PM 31.0861 -78.8053 196° South 468 539 36,000  Level Jacksonville Center
01:07PM 30.9517 -78.8497 196° South 468 539 36,000  Level Jacksonville Center
01:08PM 30.8214 -78.8844 193° South 482 555 36,000  Level Jacksonville Center
01:10PM 30.6236 -78.9425 194° South 461 531 36,000  Level Miami Center
01:11PM 30.4981 -78.9736 192° South 461 531 36,000  Level Miami Center
01:12PM 30.3703 -79.0167 196° South 461 531 36,000  Level Miami Center
01:13PM 30.2550 -79.0697 202° Southwest 461 531 36,000  Level Miami Center
01:14PM 30.1372 -79.1200 200° South 456 525 36,000  Level Miami Center
01:15PM 30.0219 -79.1703 201° Southwest 451 519 36,000  Level Miami Center
01:16PM 29.9064 -79.2253 202° Southwest 451 519 36,000  Level Miami Center
01:17PM 29.7908 -79.2753 201° Southwest 451 519 36,000  Level Miami Center
01:18PM 29.6711 -79.3228 199° South 456 525 36,000  Level Miami Center
01:19PM 29.5617 -79.3775 204° Southwest 451 519 36,000 -300 Level Miami Center
01:20PM 29.4400 -79.4225 198° South 451 519 35,500 -1,380 Descending Miami Center
01:21PM 29.3283 -79.4769 203° Southwest 451 519 33,300 -2,340 Descending Miami Center
01:22PM 29.2128 -79.5264 200° South 451 519 30,900 -2,340 Descending Miami Center
01:23PM 29.0992 -79.5831 204° Southwest 451 519 28,700 -2,220 Descending Miami Center
01:24PM 29.0344 -79.6858 234° Southwest 407 468 26,500 -1,980 Descending Miami Center
01:25PM 29.0194 -79.8136 262° West 374 430 24,800 -1,680 Descending Miami Center
01:26PM 28.9833 -79.9336 251° West 397 457 23,200 -1,920 Descending Miami Center
01:27PM 28.9453 -80.0511 250° West 402 463 21,000 -2,220 Descending Miami Center
01:28PM 28.9094 -80.1686 251° West 402 463 18,800 -2,160 Descending Miami Center
01:29PM 28.8733 -80.2836 250° West 402 463 16,700 -1,860 Descending Miami Center
01:30PM 28.8333 -80.4667 256° West 333 383 14,000 -1,140 Descending Orlando TRACON
01:31PM 28.8167 -80.5500 257° West 331 381 14,000  Level Orlando TRACON
01:32PM 28.8000 -80.6500 259° West 331 381 14,000 -600 Level Orlando TRACON
01:33PM 28.7833 -80.7500 259° West 328 377 12,800 -1,620 Descending Orlando TRACON
01:34PM 28.7333 -80.8500 240° Southwest 324 373 10,700 -1,320 Descending Orlando TRACON
01:35PM 28.6833 -80.9333 236° Southwest 282 325 9,900 -780 Descending Orlando TRACON
01:37PM 28.6500 -81.0167 246° West 271 312 9,000 -480 Descending Orlando TRACON
01:37PM 28.6000 -81.0667 221° Southwest 268 308 9,000  Level Orlando TRACON
01:38PM 28.5667 -81.1333 240° Southwest 226 260 9,000 -180 Level Orlando TRACON
01:39PM 28.5333 -81.1833 233° Southwest 230 265 8,700 -780 Descending Orlando TRACON
01:40PM 28.4667 -81.1833 180° South 235 270 7,500 -1,440 Descending Orlando TRACON
01:41PM 28.4000 -81.1833 180° South 232 267 5,900 -1,680 Descending Orlando TRACON
01:42PM 28.3333 -81.1833 180° South 229 264 4,200 -1,740 Descending Orlando TRACON
01:43PM 28.2833 -81.2167 210° Southwest 221 254 2,500 -1,320 Descending Orlando TRACON
01:44PM 28.3167 -81.2667 307° West 205 236 1,600 -600 Descending Orlando TRACON
01:45PM 28.3500 -81.2833 336° Northwest 173 199 1,400 -240 Descending Orlando TRACON